createdAt,value
2023-05-19T00:02:09.364Z,99039.44
2023-05-19T00:04:37.064Z,99042.03
2023-05-19T00:07:05.535Z,99031.41
2023-05-19T00:09:32.545Z,99029.72
2023-05-19T00:11:59.551Z,99038.50
2023-05-19T00:14:26.547Z,99033.53
2023-05-19T00:16:55.974Z,99028.00
2023-05-19T00:19:24.506Z,99025.44
2023-05-19T00:21:51.615Z,99022.78
2023-05-19T00:24:18.347Z,99017.41
2023-05-19T00:26:45.052Z,99019.31
2023-05-19T00:29:11.787Z,99023.81
2023-05-19T00:31:38.487Z,99009.75
2023-05-19T00:34:05.213Z,99011.63
2023-05-19T00:36:32.013Z,99008.94
2023-05-19T00:38:58.759Z,99009.81
2023-05-19T00:41:26.207Z,99011.72
2023-05-19T00:43:52.898Z,99004.66
2023-05-19T00:46:19.713Z,99004.81
2023-05-19T00:48:46.560Z,98999.59
2023-05-19T00:51:16.846Z,99002.25
2023-05-19T00:53:48.910Z,99012.00
2023-05-19T00:56:16.853Z,99006.88
2023-05-19T00:58:44.272Z,99005.09
2023-05-19T01:01:12.168Z,99006.13
2023-05-19T01:03:40.130Z,99004.41
2023-05-19T01:06:07.937Z,99010.66
2023-05-19T01:08:37.046Z,99002.75
2023-05-19T01:11:07.889Z,99009.13
2023-05-19T01:13:35.557Z,99000.41
2023-05-19T01:16:02.283Z,99003.13
2023-05-19T01:18:56.239Z,99004.16
2023-05-19T01:21:44.229Z,99002.53
2023-05-19T01:24:40.296Z,99003.38
2023-05-19T01:27:22.744Z,99002.59
2023-05-19T01:30:25.254Z,98998.25
2023-05-19T01:32:58.927Z,98998.19
2023-05-19T01:35:26.639Z,99001.78
2023-05-19T01:37:57.217Z,99000.84
2023-05-19T01:40:25.614Z,99007.06
2023-05-19T01:42:59.806Z,99007.00
2023-05-19T01:45:28.955Z,99012.28
2023-05-19T01:47:58.070Z,99005.19
2023-05-19T01:50:25.960Z,99007.00
2023-05-19T01:52:52.762Z,99013.19
2023-05-19T01:55:21.192Z,99010.66
2023-05-19T01:57:53.846Z,99007.22
2023-05-19T02:00:48.571Z,99012.47
2023-05-19T02:03:55.019Z,99000.13
2023-05-19T02:06:40.974Z,98995.72
2023-05-19T02:09:26.077Z,99002.81
2023-05-19T02:12:00.444Z,98999.22
2023-05-19T02:14:35.706Z,99000.88
2023-05-19T02:17:04.393Z,98999.13
2023-05-19T02:19:39.336Z,99001.88
2023-05-19T02:22:06.814Z,99000.91
2023-05-19T02:24:33.588Z,98998.28
2023-05-19T02:27:00.453Z,98994.88
2023-05-19T02:29:27.231Z,98994.00
2023-05-19T02:31:53.966Z,98993.91
2023-05-19T02:34:21.068Z,98989.53
2023-05-19T02:36:49.839Z,98989.59
2023-05-19T02:39:16.585Z,98989.69
2023-05-19T02:41:43.267Z,98981.63
2023-05-19T02:44:10.075Z,98990.47
2023-05-19T02:46:37.092Z,98977.34
2023-05-19T02:49:03.880Z,98987.09
2023-05-19T02:51:30.655Z,98985.31
2023-05-19T02:53:57.416Z,98987.09
2023-05-19T02:56:24.209Z,98986.34
2023-05-19T02:58:50.878Z,98984.59
2023-05-19T03:01:18.034Z,98985.44
2023-05-19T03:03:44.865Z,98985.47
2023-05-19T03:06:13.247Z,98988.16
2023-05-19T03:08:42.277Z,98984.69
2023-05-19T03:11:09.282Z,98992.59
2023-05-19T03:13:36.671Z,98987.31
2023-05-19T03:16:03.396Z,98990.06
2023-05-19T03:18:30.630Z,98985.00
2023-05-19T03:20:57.491Z,98981.41
2023-05-19T03:23:24.329Z,98989.31
2023-05-19T03:25:51.029Z,98987.59
2023-05-19T03:28:18.080Z,98994.69
2023-05-19T03:30:45.043Z,98994.63
2023-05-19T03:33:18.516Z,98984.13
2023-05-19T03:35:45.877Z,98989.47
2023-05-19T03:38:13.262Z,98992.97
2023-05-19T03:40:45.594Z,98988.53
2023-05-19T03:43:13.143Z,98984.06
2023-05-19T03:45:46.334Z,98989.41
2023-05-19T03:48:38.772Z,98990.25
2023-05-19T03:51:25.967Z,98996.38
2023-05-19T03:53:56.068Z,98998.13
2023-05-19T03:56:25.000Z,98997.28
2023-05-19T03:58:51.751Z,98993.91
2023-05-19T04:01:18.559Z,99005.22
2023-05-19T04:03:45.331Z,99002.59
2023-05-19T04:06:12.939Z,99004.25
2023-05-19T04:08:42.015Z,98999.94
2023-05-19T04:11:08.825Z,99005.97
2023-05-19T04:13:35.931Z,99007.81
2023-05-19T04:16:02.926Z,99008.69
2023-05-19T04:18:29.695Z,99003.38
2023-05-19T04:20:56.470Z,99011.22
2023-05-19T04:23:23.237Z,99006.81
2023-05-19T04:25:50.254Z,99011.22
2023-05-19T04:28:18.020Z,99012.97
2023-05-19T04:30:46.534Z,99014.72
2023-05-19T04:33:13.747Z,99012.09
2023-05-19T04:35:40.558Z,99007.56
2023-05-19T04:38:09.939Z,99010.16
2023-05-19T04:40:37.106Z,99004.75
2023-05-19T04:43:03.824Z,99009.16
2023-05-19T04:45:32.958Z,99005.50
2023-05-19T04:48:02.063Z,99003.69
2023-05-19T04:50:30.970Z,99004.41
2023-05-19T04:52:59.159Z,99002.56
2023-05-19T04:55:26.179Z,98998.88
2023-05-19T04:57:53.302Z,98999.59
2023-05-19T05:00:21.313Z,98999.28
2023-05-19T05:02:57.681Z,98988.28
2023-05-19T05:05:26.050Z,98995.19
2023-05-19T05:07:54.189Z,98980.84
2023-05-19T05:10:22.480Z,98983.22
2023-05-19T05:12:49.859Z,98981.06
2023-05-19T05:15:17.093Z,98983.50
2023-05-19T05:17:46.353Z,98977.06
2023-05-19T05:20:13.885Z,98984.72
2023-05-19T05:22:42.002Z,98978.94
2023-05-19T05:25:09.908Z,98973.66
2023-05-19T05:27:37.470Z,98971.44
2023-05-19T05:30:06.396Z,98961.16
2023-05-19T05:32:33.154Z,98966.66
2023-05-19T05:35:02.042Z,98967.06
2023-05-19T05:37:30.920Z,98960.28
2023-05-19T05:39:57.645Z,98963.59
2023-05-19T05:42:24.729Z,98959.94
2023-05-19T05:44:52.050Z,98954.22
2023-05-19T05:47:19.174Z,98946.72
2023-05-19T05:49:48.201Z,98947.81
2023-05-19T05:52:18.676Z,98946.13
2023-05-19T05:54:47.992Z,98948.47
2023-05-19T05:57:17.586Z,98949.50
2023-05-19T05:59:46.998Z,98941.72
2023-05-19T06:02:13.722Z,98945.97
2023-05-19T06:04:40.781Z,98933.56
2023-05-19T06:07:07.641Z,98936.25
2023-05-19T06:09:37.295Z,98928.53
2023-05-19T06:12:06.601Z,98930.31
2023-05-19T06:14:38.207Z,98925.72
2023-05-19T06:17:10.514Z,98918.47
2023-05-19T06:19:37.481Z,98919.47
2023-05-19T06:22:04.319Z,98917.38
2023-05-19T06:24:31.427Z,98918.47
2023-05-19T06:26:58.216Z,98917.31
2023-05-19T06:29:25.372Z,98912.00
2023-05-19T06:31:54.004Z,98919.16
2023-05-19T06:34:21.574Z,98921.19
2023-05-19T06:36:48.413Z,98908.22
2023-05-19T06:39:16.207Z,98916.25
2023-05-19T06:41:43.240Z,98912.13
2023-05-19T06:44:10.044Z,98911.38
2023-05-19T06:46:36.886Z,98913.50
2023-05-19T06:49:04.464Z,98902.59
2023-05-19T06:51:35.429Z,98909.25
2023-05-19T06:54:02.771Z,98891.66
2023-05-19T06:56:29.565Z,98895.00
2023-05-19T06:58:56.385Z,98894.56
2023-05-19T07:01:30.177Z,98903.59
2023-05-19T07:03:58.204Z,98908.53
2023-05-19T07:06:25.047Z,98908.81
2023-05-19T07:08:52.452Z,98907.44
2023-05-19T07:11:19.653Z,98913.81
2023-05-19T07:13:47.504Z,98897.88
2023-05-19T07:16:20.245Z,98907.84
2023-05-19T07:18:47.013Z,98894.63
2023-05-19T07:21:13.738Z,98904.59
2023-05-19T07:23:40.579Z,98899.47
2023-05-19T07:26:07.241Z,98905.84
2023-05-19T07:28:34.422Z,98906.78
2023-05-19T07:31:01.438Z,98906.31
2023-05-19T07:33:28.175Z,98913.31
2023-05-19T07:35:54.974Z,98908.94
2023-05-19T07:38:21.698Z,98910.06
2023-05-19T07:40:48.467Z,98910.22
2023-05-19T07:43:15.193Z,98900.59
2023-05-19T07:45:42.066Z,98904.31
2023-05-19T07:48:08.950Z,98901.19
2023-05-19T07:50:35.804Z,98908.06
2023-05-19T07:53:02.661Z,98902.22
2023-05-19T07:55:29.419Z,98900.25
2023-05-19T07:57:56.258Z,98899.38
2023-05-19T08:00:23.168Z,98889.72
2023-05-19T08:02:49.859Z,98894.03
2023-05-19T08:05:16.750Z,98894.25
2023-05-19T08:07:43.463Z,98886.13
2023-05-19T08:10:10.575Z,98888.47
2023-05-19T08:12:37.318Z,98874.53
2023-05-19T08:15:04.698Z,98883.84
2023-05-19T08:17:31.508Z,98875.03
2023-05-19T08:19:58.257Z,98871.81
2023-05-19T08:22:24.957Z,98866.13
2023-05-19T08:24:51.809Z,98863.59
2023-05-19T08:27:18.560Z,98866.38
2023-05-19T08:29:45.336Z,98871.81
2023-05-19T08:32:13.385Z,98861.06
2023-05-19T08:34:41.331Z,98861.72
2023-05-19T08:37:08.270Z,98852.09
2023-05-19T08:39:35.152Z,98848.28
2023-05-19T08:42:02.426Z,98849.69
2023-05-19T08:44:30.781Z,98840.72
2023-05-19T08:47:02.837Z,98838.66
2023-05-19T08:49:33.132Z,98833.41
2023-05-19T08:52:15.183Z,98832.97
2023-05-19T08:54:50.772Z,98827.00
2023-05-19T08:57:18.563Z,98819.88
2023-05-19T08:59:45.751Z,98814.66
2023-05-19T09:02:14.282Z,98820.22
2023-05-19T09:04:42.028Z,98809.41
2023-05-19T09:07:09.364Z,98808.13
2023-05-19T09:09:36.131Z,98799.69
2023-05-19T09:12:03.163Z,98806.75
2023-05-19T09:14:30.712Z,98792.44
2023-05-19T09:16:57.664Z,98780.84
2023-05-19T09:19:28.733Z,98788.19
2023-05-19T09:22:06.285Z,98784.03
2023-05-19T09:24:34.515Z,98778.78
2023-05-19T09:27:02.128Z,98782.34
2023-05-19T09:29:28.846Z,98775.31
2023-05-19T09:32:01.066Z,98767.28
2023-05-19T09:34:27.937Z,98773.97
2023-05-19T09:36:54.668Z,98782.50
2023-05-19T09:39:23.312Z,98780.56
2023-05-19T09:41:54.426Z,98769.44
2023-05-19T09:44:21.160Z,98788.13
2023-05-19T09:46:51.677Z,98776.75
2023-05-19T09:49:23.137Z,98770.66
2023-05-19T09:52:02.101Z,98774.22
2023-05-19T09:54:32.013Z,98773.19
2023-05-19T09:56:59.052Z,98778.47
2023-05-19T09:59:27.599Z,98768.72
2023-05-19T10:01:57.833Z,98782.56
2023-05-19T10:04:29.226Z,98780.34
2023-05-19T10:06:59.675Z,98769.97
2023-05-19T10:09:28.461Z,98763.00
2023-05-19T10:11:56.999Z,98754.09
2023-05-19T10:14:26.110Z,98756.28
2023-05-19T10:16:57.356Z,98756.22
2023-05-19T10:19:26.140Z,98764.28
2023-05-19T10:21:53.729Z,98759.84
2023-05-19T10:24:21.235Z,98756.06
2023-05-19T10:27:01.164Z,98754.69
2023-05-19T10:29:34.714Z,98759.38
2023-05-19T10:32:08.557Z,98745.59
2023-05-19T10:35:14.419Z,98745.59
2023-05-19T10:37:53.304Z,98730.72
2023-05-19T10:41:11.374Z,98726.31
2023-05-19T10:43:52.952Z,98731.44
2023-05-19T10:46:23.908Z,98732.25
2023-05-19T10:48:51.466Z,98726.00
2023-05-19T10:51:18.218Z,98723.53
2023-05-19T10:53:46.278Z,98722.13
2023-05-19T10:56:36.328Z,98719.44
2023-05-19T10:59:03.745Z,98727.22
2023-05-19T11:01:33.365Z,98722.59
2023-05-19T11:04:10.586Z,98720.16
2023-05-19T11:06:39.134Z,98727.91
2023-05-19T11:09:08.770Z,98715.97
2023-05-19T11:11:48.398Z,98722.00
2023-05-19T11:14:20.926Z,98714.22
2023-05-19T11:16:49.675Z,98713.78
2023-05-19T11:19:29.651Z,98708.28
2023-05-19T11:21:58.000Z,98715.16
2023-05-19T11:24:38.064Z,98706.06
2023-05-19T11:27:17.471Z,98702.44
2023-05-19T11:29:44.296Z,98697.81
2023-05-19T11:32:12.838Z,98693.78
2023-05-19T11:34:40.027Z,98695.19
2023-05-19T11:37:07.250Z,98691.84
2023-05-19T11:39:34.576Z,98696.69
2023-05-19T11:42:01.529Z,98695.63
2023-05-19T11:44:28.280Z,98689.16
2023-05-19T11:46:55.018Z,98699.00
2023-05-19T11:49:21.766Z,98680.88
2023-05-19T11:51:48.641Z,98677.03
2023-05-19T11:54:15.676Z,98686.91
2023-05-19T11:56:43.000Z,98685.44
2023-05-19T11:59:09.989Z,98681.38
2023-05-19T12:01:36.858Z,98694.81
2023-05-19T12:04:08.496Z,98689.16
2023-05-19T12:06:35.407Z,98687.03
2023-05-19T12:09:02.296Z,98699.63
2023-05-19T12:11:29.361Z,98681.66
2023-05-19T12:13:59.536Z,98690.31
2023-05-19T12:16:34.246Z,98689.91
2023-05-19T12:19:02.313Z,98700.84
2023-05-19T12:21:34.280Z,98696.84
2023-05-19T12:24:01.631Z,98694.13
2023-05-19T12:26:28.361Z,98703.31
2023-05-19T12:28:55.040Z,98695.13
2023-05-19T12:31:23.754Z,98712.94
2023-05-19T12:33:53.481Z,98717.09
2023-05-19T12:36:20.268Z,98714.19
2023-05-19T12:38:47.748Z,98711.38
2023-05-19T12:41:14.693Z,98708.16
2023-05-19T12:43:41.408Z,98710.16
2023-05-19T12:46:12.173Z,98709.56
2023-05-19T12:48:46.538Z,98708.22
2023-05-19T12:51:17.839Z,98706.22
2023-05-19T12:53:45.640Z,98699.59
2023-05-19T12:56:16.141Z,98709.16
2023-05-19T12:58:43.951Z,98703.84
2023-05-19T13:01:18.612Z,98704.47
2023-05-19T13:03:45.950Z,98714.16
2023-05-19T13:06:12.923Z,98702.59
2023-05-19T13:08:40.975Z,98705.72
2023-05-19T13:11:07.681Z,98694.59
2023-05-19T13:13:34.476Z,98693.13
2023-05-19T13:16:01.275Z,98688.84
2023-05-19T13:18:28.116Z,98697.97
2023-05-19T13:20:54.858Z,98692.88
2023-05-19T13:23:21.707Z,98691.91
2023-05-19T13:25:50.760Z,98696.19
2023-05-19T13:28:17.842Z,98697.03
2023-05-19T13:30:45.186Z,98695.88
2023-05-19T13:33:12.213Z,98685.34
2023-05-19T13:35:39.191Z,98694.34
2023-05-19T13:38:07.888Z,98698.31
2023-05-19T13:40:35.225Z,98699.16
2023-05-19T13:43:05.116Z,98693.69
2023-05-19T13:45:32.075Z,98698.78
2023-05-19T13:47:58.933Z,98697.88
2023-05-19T13:50:25.762Z,98690.53
2023-05-19T13:52:52.506Z,98684.03
2023-05-19T13:55:19.461Z,98685.25
2023-05-19T13:57:46.168Z,98677.03
2023-05-19T14:00:13.407Z,98685.66
2023-05-19T14:02:40.587Z,98680.50
2023-05-19T14:05:08.021Z,98688.47
2023-05-19T14:07:35.621Z,98687.50
2023-05-19T14:10:03.868Z,98680.78
2023-05-19T14:12:40.389Z,98681.63
2023-05-19T14:15:14.476Z,98682.03
2023-05-19T14:17:41.635Z,98683.41
2023-05-19T14:20:09.468Z,98678.28
2023-05-19T14:22:36.099Z,98685.72
2023-05-19T14:25:02.850Z,98684.81
2023-05-19T14:27:29.536Z,98680.50
2023-05-19T14:29:56.308Z,98681.16
2023-05-19T14:32:23.120Z,98679.75
2023-05-19T14:34:52.813Z,98689.88
2023-05-19T14:37:20.182Z,98689.66
2023-05-19T14:39:46.941Z,98689.03
2023-05-19T14:42:14.986Z,98687.34
2023-05-19T14:44:41.674Z,98692.31
2023-05-19T14:47:08.526Z,98686.56
2023-05-19T14:49:35.411Z,98677.72
2023-05-19T14:52:02.161Z,98669.91
2023-05-19T14:54:28.861Z,98678.84
2023-05-19T14:56:55.606Z,98674.91
2023-05-19T14:59:22.311Z,98671.34
2023-05-19T15:01:49.085Z,98674.16
2023-05-19T15:04:15.981Z,98676.06
2023-05-19T15:06:42.739Z,98680.31
2023-05-19T15:09:09.460Z,98679.78
2023-05-19T15:11:36.218Z,98680.13
2023-05-19T15:14:02.887Z,98684.66
2023-05-19T15:16:30.201Z,98678.03
2023-05-19T15:18:56.937Z,98675.75
2023-05-19T15:21:23.798Z,98676.09
2023-05-19T15:23:50.588Z,98680.34
2023-05-19T15:26:17.470Z,98677.38
2023-05-19T15:28:44.157Z,98682.09
2023-05-19T15:31:10.927Z,98676.50
2023-05-19T15:33:37.728Z,98687.34
2023-05-19T15:36:04.696Z,98686.63
2023-05-19T15:38:35.264Z,98670.81
2023-05-19T15:41:06.411Z,98672.53
2023-05-19T15:43:33.213Z,98679.88
2023-05-19T15:45:59.962Z,98673.59
2023-05-19T15:48:28.825Z,98683.00
2023-05-19T15:50:58.025Z,98679.97
2023-05-19T15:53:25.504Z,98673.59
2023-05-19T15:55:52.254Z,98677.50
2023-05-19T15:58:19.091Z,98680.13
2023-05-19T16:00:45.959Z,98678.19
2023-05-19T16:03:12.703Z,98675.97
2023-05-19T16:05:39.556Z,98682.31
2023-05-19T16:08:08.456Z,98682.50
2023-05-19T16:10:35.725Z,98683.63
2023-05-19T16:13:02.567Z,98685.47
2023-05-19T16:15:29.313Z,98683.56
2023-05-19T16:17:56.768Z,98689.09
2023-05-19T16:20:27.815Z,98685.91
2023-05-19T16:22:55.461Z,98680.13
2023-05-19T16:25:22.841Z,98679.63
2023-05-19T16:27:50.110Z,98685.44
2023-05-19T16:30:17.016Z,98677.53
2023-05-19T16:32:43.920Z,98678.09
2023-05-19T16:35:10.893Z,98671.75
2023-05-19T16:37:37.756Z,98678.84
2023-05-19T16:40:04.980Z,98668.81
2023-05-19T16:42:34.407Z,98669.06
2023-05-19T16:45:01.272Z,98659.44
2023-05-19T16:47:28.383Z,98660.09
2023-05-19T16:49:55.291Z,98662.00
2023-05-19T16:52:21.984Z,98663.69
2023-05-19T16:54:48.763Z,98663.19
2023-05-19T16:57:15.555Z,98664.97
2023-05-19T16:59:42.380Z,98662.13
2023-05-19T17:02:09.217Z,98672.50
2023-05-19T17:04:36.095Z,98678.97
2023-05-19T17:07:02.829Z,98678.56
2023-05-19T17:09:29.512Z,98685.50
2023-05-19T17:11:56.324Z,98683.69
2023-05-19T17:14:23.136Z,98685.19
2023-05-19T17:16:49.948Z,98684.44
2023-05-19T17:19:16.979Z,98694.72
2023-05-19T17:21:43.762Z,98684.53
2023-05-19T17:24:10.461Z,98684.53
2023-05-19T17:26:37.323Z,98684.88
2023-05-19T17:29:04.154Z,98685.44
2023-05-19T17:31:30.916Z,98681.72
2023-05-19T17:33:57.622Z,98684.56
2023-05-19T17:36:24.346Z,98694.72
2023-05-19T17:38:51.103Z,98690.47
2023-05-19T17:41:17.935Z,98689.16
2023-05-19T17:43:44.669Z,98697.97
2023-05-19T17:46:11.823Z,98696.38
2023-05-19T17:48:39.888Z,98702.38
2023-05-19T17:51:09.318Z,98697.81
2023-05-19T17:53:36.587Z,98701.34
2023-05-19T17:56:06.469Z,98695.28
2023-05-19T17:58:33.528Z,98694.97
2023-05-19T18:01:00.479Z,98694.03
2023-05-19T18:03:27.491Z,98692.78
2023-05-19T18:05:54.609Z,98694.81
2023-05-19T18:08:21.611Z,98694.50
2023-05-19T18:10:51.228Z,98693.09
2023-05-19T18:13:18.024Z,98693.25
2023-05-19T18:15:44.658Z,98693.31
2023-05-19T18:18:12.119Z,98696.16
2023-05-19T18:20:41.025Z,98696.22
2023-05-19T18:23:07.761Z,98696.72
2023-05-19T18:25:35.652Z,98695.06
2023-05-19T18:28:02.551Z,98692.75
2023-05-19T18:30:29.449Z,98690.53
2023-05-19T18:32:56.198Z,98689.38
2023-05-19T18:35:22.981Z,98697.97
2023-05-19T18:37:49.784Z,98698.25
2023-05-19T18:40:16.527Z,98696.81
2023-05-19T18:42:43.232Z,98694.09
2023-05-19T18:45:10.227Z,98689.59
2023-05-19T18:47:37.028Z,98696.22
2023-05-19T18:50:04.136Z,98694.47
2023-05-19T18:52:31.317Z,98694.56
2023-05-19T18:54:59.537Z,98694.03
2023-05-19T18:57:26.305Z,98698.66
2023-05-19T18:59:53.016Z,98700.16
2023-05-19T19:02:19.713Z,98705.34
2023-05-19T19:04:46.468Z,98714.09
2023-05-19T19:07:13.440Z,98706.25
2023-05-19T19:09:43.523Z,98707.78
2023-05-19T19:12:10.721Z,98708.28
2023-05-19T19:14:37.516Z,98711.75
2023-05-19T19:17:04.410Z,98713.84
2023-05-19T19:19:31.240Z,98715.50
2023-05-19T19:21:58.005Z,98712.06
2023-05-19T19:24:26.347Z,98711.75
2023-05-19T19:26:53.100Z,98707.94
2023-05-19T19:29:21.798Z,98696.22
2023-05-19T19:31:48.850Z,98704.78
2023-05-19T19:34:15.868Z,98705.66
2023-05-19T19:36:42.631Z,98707.94
2023-05-19T19:39:09.480Z,98705.50
2023-05-19T19:41:36.639Z,98707.47
2023-05-19T19:44:03.646Z,98712.34
2023-05-19T19:46:30.535Z,98718.34
2023-05-19T19:49:00.570Z,98720.31
2023-05-19T19:51:28.031Z,98718.47
2023-05-19T19:53:55.201Z,98723.34
2023-05-19T19:56:24.463Z,98723.09
2023-05-19T19:58:51.245Z,98718.66
2023-05-19T20:01:20.364Z,98726.28
2023-05-19T20:03:47.953Z,98722.94
2023-05-19T20:06:14.932Z,98728.72
2023-05-19T20:08:41.778Z,98729.00
2023-05-19T20:11:08.602Z,98726.69
2023-05-19T20:13:35.353Z,98735.38
2023-05-19T20:16:02.164Z,98733.47
2023-05-19T20:18:29.927Z,98722.00
2023-05-19T20:20:56.888Z,98725.66
2023-05-19T20:23:23.640Z,98724.81
2023-05-19T20:26:09.281Z,98727.72
2023-05-19T20:28:37.366Z,98721.50
2023-05-19T20:31:06.257Z,98726.78
2023-05-19T20:33:33.062Z,98729.00
2023-05-19T20:35:59.842Z,98723.94
2023-05-19T20:38:26.578Z,98727.28
2023-05-19T20:40:54.478Z,98726.16
2023-05-19T20:43:21.391Z,98727.78
2023-05-19T20:45:48.165Z,98720.03
2023-05-19T20:48:16.036Z,98725.38
2023-05-19T20:50:43.126Z,98725.38
2023-05-19T20:53:10.090Z,98730.44
2023-05-19T20:55:38.730Z,98725.38
2023-05-19T20:58:05.693Z,98731.53
2023-05-19T21:00:32.921Z,98730.88
2023-05-19T21:03:00.152Z,98726.41
2023-05-19T21:05:26.948Z,98731.84
2023-05-19T21:07:53.952Z,98732.25
2023-05-19T21:10:20.913Z,98731.47
2023-05-19T21:12:47.763Z,98734.28
2023-05-19T21:15:14.587Z,98738.88
2023-05-19T21:17:41.329Z,98732.19
2023-05-19T21:20:08.807Z,98731.13
2023-05-19T21:22:38.412Z,98737.34
2023-05-19T21:25:06.006Z,98733.63
2023-05-19T21:27:35.438Z,98741.88
2023-05-19T21:30:02.305Z,98736.63
2023-05-19T21:32:29.666Z,98728.03
2023-05-19T21:34:56.543Z,98736.22
2023-05-19T21:37:23.376Z,98742.50
2023-05-19T21:39:50.132Z,98736.41
2023-05-19T21:42:16.943Z,98737.34
2023-05-19T21:44:43.689Z,98733.72
2023-05-19T21:47:10.373Z,98731.72
2023-05-19T21:49:39.902Z,98724.25
2023-05-19T21:52:09.747Z,98722.19
2023-05-19T21:54:36.490Z,98716.94
2023-05-19T21:57:03.399Z,98717.19
2023-05-19T21:59:30.047Z,98714.16
2023-05-19T22:01:56.769Z,98711.09
2023-05-19T22:04:23.560Z,98710.72
2023-05-19T22:06:50.260Z,98710.44
2023-05-19T22:09:16.981Z,98704.97
2023-05-19T22:11:43.715Z,98698.56
2023-05-19T22:14:10.717Z,98703.75
2023-05-19T22:16:37.542Z,98701.56
2023-05-19T22:19:04.301Z,98697.84
2023-05-19T22:21:31.961Z,98687.94
2023-05-19T22:23:58.799Z,98693.44
2023-05-19T22:26:25.987Z,98690.78
2023-05-19T22:28:53.317Z,98692.38
2023-05-19T22:31:20.035Z,98692.69
2023-05-19T22:33:46.776Z,98691.03
2023-05-19T22:36:15.931Z,98686.25
2023-05-19T22:38:42.654Z,98681.47
2023-05-19T22:41:09.329Z,98683.81
2023-05-19T22:43:36.010Z,98681.38
2023-05-19T22:46:02.705Z,98689.38
2023-05-19T22:48:29.474Z,98688.53
2023-05-19T22:50:56.124Z,98681.84
2023-05-19T22:53:22.830Z,98682.47
2023-05-19T22:55:49.565Z,98677.25
2023-05-19T22:58:16.689Z,98675.03
2023-05-19T23:00:43.356Z,98677.97
2023-05-19T23:03:10.080Z,98673.91
2023-05-19T23:05:36.791Z,98674.97
2023-05-19T23:08:03.570Z,98672.81
2023-05-19T23:10:30.324Z,98670.19
2023-05-19T23:12:57.073Z,98674.28
2023-05-19T23:15:23.796Z,98668.56
2023-05-19T23:17:50.550Z,98670.69
2023-05-19T23:20:17.374Z,98660.34
2023-05-19T23:22:44.033Z,98661.56
2023-05-19T23:25:11.221Z,98660.91
2023-05-19T23:27:37.923Z,98651.06
2023-05-19T23:30:05.127Z,98649.34
2023-05-19T23:32:32.114Z,98649.09
2023-05-19T23:35:09.214Z,98646.56
2023-05-19T23:37:35.918Z,98658.59
2023-05-19T23:40:02.774Z,98654.00
2023-05-19T23:42:29.519Z,98639.63
2023-05-19T23:44:56.244Z,98646.56
2023-05-19T23:47:22.936Z,98652.81
2023-05-19T23:49:49.754Z,98645.66
2023-05-19T23:52:16.422Z,98642.22
2023-05-19T23:54:43.163Z,98646.25
2023-05-19T23:57:09.903Z,98640.13
2023-05-19T23:59:36.757Z,98640.78
